sensor_id;sensor_type;location;lat;lon;timestamp;P1;durP1;ratioP1;P2;durP2;ratioP2
6791;SDS011;3433;48.730;9.108;2024-01-30T00:00:58;12.80;;;8.43;;
6791;SDS011;3433;48.730;9.108;2024-01-30T00:03:45;12.00;;;7.80;;
6791;SDS011;3433;48.730;9.108;2024-01-30T00:06:32;11.27;;;7.40;;
6791;SDS011;3433;48.730;9.108;2024-01-30T00:09:19;16.30;;;7.30;;
6791;SDS011;3433;48.730;9.108;2024-01-30T00:12:06;11.50;;;7.27;;
6791;SDS011;3433;48.730;9.108;2024-01-30T00:14:55;13.87;;;7.70;;
6791;SDS011;3433;48.730;9.108;2024-01-30T00:17:43;10.13;;;7.60;;
6791;SDS011;3433;48.730;9.108;2024-01-30T00:20:30;11.43;;;7.00;;
6791;SDS011;3433;48.730;9.108;2024-01-30T00:23:17;12.03;;;7.63;;
6791;SDS011;3433;48.730;9.108;2024-01-30T00:26:04;12.00;;;6.50;;
6791;SDS011;3433;48.730;9.108;2024-01-30T00:28:52;10.13;;;7.07;;
6791;SDS011;3433;48.730;9.108;2024-01-30T00:31:40;10.27;;;6.37;;
6791;SDS011;3433;48.730;9.108;2024-01-30T00:34:27;9.30;;;6.57;;
6791;SDS011;3433;48.730;9.108;2024-01-30T00:37:14;9.70;;;6.73;;
6791;SDS011;3433;48.730;9.108;2024-01-30T00:40:02;9.90;;;7.33;;
6791;SDS011;3433;48.730;9.108;2024-01-30T00:42:51;8.37;;;6.70;;
6791;SDS011;3433;48.730;9.108;2024-01-30T00:45:38;10.17;;;6.70;;
6791;SDS011;3433;48.730;9.108;2024-01-30T00:48:27;9.93;;;7.13;;
6791;SDS011;3433;48.730;9.108;2024-01-30T00:51:14;10.10;;;6.50;;
6791;SDS011;3433;48.730;9.108;2024-01-30T00:54:01;12.30;;;7.97;;
6791;SDS011;3433;48.730;9.108;2024-01-30T00:56:49;8.90;;;7.00;;
6791;SDS011;3433;48.730;9.108;2024-01-30T00:59:36;10.33;;;6.70;;
6791;SDS011;3433;48.730;9.108;2024-01-30T01:02:23;9.30;;;6.50;;
6791;SDS011;3433;48.730;9.108;2024-01-30T01:05:12;8.83;;;6.20;;
6791;SDS011;3433;48.730;9.108;2024-01-30T01:07:59;8.70;;;6.40;;
6791;SDS011;3433;48.730;9.108;2024-01-30T01:10:46;13.33;;;7.00;;
6791;SDS011;3433;48.730;9.108;2024-01-30T01:13:33;7.83;;;6.00;;
6791;SDS011;3433;48.730;9.108;2024-01-30T01:16:20;8.50;;;6.53;;
6791;SDS011;3433;48.730;9.108;2024-01-30T01:19:08;10.43;;;6.70;;
6791;SDS011;3433;48.730;9.108;2024-01-30T01:21:56;9.50;;;6.73;;
6791;SDS011;3433;48.730;9.108;2024-01-30T01:24:43;6.50;;;5.60;;
6791;SDS011;3433;48.730;9.108;2024-01-30T01:27:31;9.47;;;6.60;;
6791;SDS011;3433;48.730;9.108;2024-01-30T01:30:19;9.40;;;6.30;;
6791;SDS011;3433;48.730;9.108;2024-01-30T01:33:07;8.30;;;6.30;;
6791;SDS011;3433;48.730;9.108;2024-01-30T01:35:55;10.23;;;7.57;;
6791;SDS011;3433;48.730;9.108;2024-01-30T01:38:43;11.83;;;6.37;;
6791;SDS011;3433;48.730;9.108;2024-01-30T01:41:30;7.80;;;6.53;;
6791;SDS011;3433;48.730;9.108;2024-01-30T01:44:18;10.37;;;6.37;;
6791;SDS011;3433;48.730;9.108;2024-01-30T01:47:05;7.80;;;5.53;;
6791;SDS011;3433;48.730;9.108;2024-01-30T01:49:52;8.80;;;5.90;;
6791;SDS011;3433;48.730;9.108;2024-01-30T01:52:40;10.30;;;6.30;;
6791;SDS011;3433;48.730;9.108;2024-01-30T01:55:29;8.60;;;5.83;;
6791;SDS011;3433;48.730;9.108;2024-01-30T01:58:18;12.30;;;6.23;;
6791;SDS011;3433;48.730;9.108;2024-01-30T02:01:07;7.27;;;5.87;;
6791;SDS011;3433;48.730;9.108;2024-01-30T02:03:55;9.00;;;5.57;;
6791;SDS011;3433;48.730;9.108;2024-01-30T02:06:42;7.03;;;5.40;;
6791;SDS011;3433;48.730;9.108;2024-01-30T02:09:29;8.50;;;6.07;;
6791;SDS011;3433;48.730;9.108;2024-01-30T02:12:19;9.13;;;6.03;;
6791;SDS011;3433;48.730;9.108;2024-01-30T02:15:06;8.20;;;5.83;;
6791;SDS011;3433;48.730;9.108;2024-01-30T02:17:53;7.23;;;5.40;;
6791;SDS011;3433;48.730;9.108;2024-01-30T02:20:40;10.93;;;6.50;;
6791;SDS011;3433;48.730;9.108;2024-01-30T02:23:29;9.10;;;6.00;;
6791;SDS011;3433;48.730;9.108;2024-01-30T02:26:18;9.50;;;6.20;;
6791;SDS011;3433;48.730;9.108;2024-01-30T02:29:05;10.03;;;5.23;;
6791;SDS011;3433;48.730;9.108;2024-01-30T02:31:53;9.57;;;6.50;;
6791;SDS011;3433;48.730;9.108;2024-01-30T02:34:40;8.23;;;6.07;;
6791;SDS011;3433;48.730;9.108;2024-01-30T02:37:27;11.00;;;6.40;;
6791;SDS011;3433;48.730;9.108;2024-01-30T02:40:15;7.73;;;6.17;;
6791;SDS011;3433;48.730;9.108;2024-01-30T02:43:03;11.80;;;6.23;;
6791;SDS011;3433;48.730;9.108;2024-01-30T02:45:50;9.93;;;6.40;;
6791;SDS011;3433;48.730;9.108;2024-01-30T02:48:37;10.70;;;6.53;;
6791;SDS011;3433;48.730;9.108;2024-01-30T02:51:25;11.70;;;6.07;;
6791;SDS011;3433;48.730;9.108;2024-01-30T02:54:12;12.90;;;6.67;;
6791;SDS011;3433;48.730;9.108;2024-01-30T02:57:00;14.37;;;5.83;;
6791;SDS011;3433;48.730;9.108;2024-01-30T02:59:48;9.13;;;5.60;;
6791;SDS011;3433;48.730;9.108;2024-01-30T03:02:35;10.47;;;6.60;;
6791;SDS011;3433;48.730;9.108;2024-01-30T03:05:22;9.93;;;5.77;;
6791;SDS011;3433;48.730;9.108;2024-01-30T03:08:10;11.83;;;6.47;;
6791;SDS011;3433;48.730;9.108;2024-01-30T03:10:57;8.60;;;5.37;;
6791;SDS011;3433;48.730;9.108;2024-01-30T03:13:46;10.47;;;6.50;;
6791;SDS011;3433;48.730;9.108;2024-01-30T03:16:33;10.90;;;6.00;;
6791;SDS011;3433;48.730;9.108;2024-01-30T03:19:20;11.40;;;6.53;;
6791;SDS011;3433;48.730;9.108;2024-01-30T03:22:07;12.20;;;6.40;;
6791;SDS011;3433;48.730;9.108;2024-01-30T03:24:54;10.07;;;5.90;;
6791;SDS011;3433;48.730;9.108;2024-01-30T03:27:41;11.90;;;6.30;;
6791;SDS011;3433;48.730;9.108;2024-01-30T03:30:30;8.60;;;5.70;;
6791;SDS011;3433;48.730;9.108;2024-01-30T03:33:17;9.67;;;6.07;;
6791;SDS011;3433;48.730;9.108;2024-01-30T03:36:05;9.00;;;6.10;;
6791;SDS011;3433;48.730;9.108;2024-01-30T03:38:52;13.17;;;6.50;;
6791;SDS011;3433;48.730;9.108;2024-01-30T03:41:41;8.53;;;5.37;;
6791;SDS011;3433;48.730;9.108;2024-01-30T03:44:29;10.37;;;6.30;;
6791;SDS011;3433;48.730;9.108;2024-01-30T03:47:18;6.20;;;5.10;;
6791;SDS011;3433;48.730;9.108;2024-01-30T03:50:06;9.90;;;5.87;;
6791;SDS011;3433;48.730;9.108;2024-01-30T03:52:53;7.70;;;5.40;;
6791;SDS011;3433;48.730;9.108;2024-01-30T03:55:40;7.23;;;5.40;;
6791;SDS011;3433;48.730;9.108;2024-01-30T03:58:27;8.43;;;5.33;;
6791;SDS011;3433;48.730;9.108;2024-01-30T04:01:15;10.20;;;6.30;;
6791;SDS011;3433;48.730;9.108;2024-01-30T04:04:03;8.63;;;4.87;;
6791;SDS011;3433;48.730;9.108;2024-01-30T04:06:50;11.33;;;6.53;;
6791;SDS011;3433;48.730;9.108;2024-01-30T04:09:38;8.50;;;5.60;;
6791;SDS011;3433;48.730;9.108;2024-01-30T04:12:25;7.27;;;5.60;;
6791;SDS011;3433;48.730;9.108;2024-01-30T04:15:12;9.33;;;5.70;;
6791;SDS011;3433;48.730;9.108;2024-01-30T04:18:00;8.47;;;5.67;;
6791;SDS011;3433;48.730;9.108;2024-01-30T04:20:48;11.53;;;6.50;;
6791;SDS011;3433;48.730;9.108;2024-01-30T04:23:35;9.23;;;6.00;;
6791;SDS011;3433;48.730;9.108;2024-01-30T04:26:22;9.80;;;5.70;;
6791;SDS011;3433;48.730;9.108;2024-01-30T04:29:10;7.40;;;5.13;;
6791;SDS011;3433;48.730;9.108;2024-01-30T04:31:57;15.77;;;6.07;;
6791;SDS011;3433;48.730;9.108;2024-01-30T04:34:44;11.40;;;6.17;;
6791;SDS011;3433;48.730;9.108;2024-01-30T04:37:32;7.47;;;5.70;;
6791;SDS011;3433;48.730;9.108;2024-01-30T04:40:20;7.80;;;6.17;;
6791;SDS011;3433;48.730;9.108;2024-01-30T04:43:07;5.73;;;5.10;;
6791;SDS011;3433;48.730;9.108;2024-01-30T04:45:54;11.37;;;6.33;;
6791;SDS011;3433;48.730;9.108;2024-01-30T04:48:42;10.13;;;5.60;;
6791;SDS011;3433;48.730;9.108;2024-01-30T04:51:29;7.97;;;5.40;;
6791;SDS011;3433;48.730;9.108;2024-01-30T04:54:17;9.60;;;6.10;;
6791;SDS011;3433;48.730;9.108;2024-01-30T04:57:05;9.53;;;5.67;;
6791;SDS011;3433;48.730;9.108;2024-01-30T04:59:54;10.07;;;5.37;;
6791;SDS011;3433;48.730;9.108;2024-01-30T05:02:42;9.17;;;6.53;;
6791;SDS011;3433;48.730;9.108;2024-01-30T05:05:29;8.47;;;5.33;;
6791;SDS011;3433;48.730;9.108;2024-01-30T05:08:16;10.30;;;5.80;;
6791;SDS011;3433;48.730;9.108;2024-01-30T05:11:05;12.00;;;6.00;;
6791;SDS011;3433;48.730;9.108;2024-01-30T05:13:52;9.60;;;6.27;;
6791;SDS011;3433;48.730;9.108;2024-01-30T05:16:39;8.80;;;6.67;;
6791;SDS011;3433;48.730;9.108;2024-01-30T05:19:27;9.63;;;6.30;;
6791;SDS011;3433;48.730;9.108;2024-01-30T05:22:14;10.83;;;6.70;;
6791;SDS011;3433;48.730;9.108;2024-01-30T05:25:03;10.93;;;6.50;;
6791;SDS011;3433;48.730;9.108;2024-01-30T05:27:53;12.30;;;6.53;;
6791;SDS011;3433;48.730;9.108;2024-01-30T05:30:40;11.83;;;6.03;;
6791;SDS011;3433;48.730;9.108;2024-01-30T05:33:28;8.43;;;6.90;;
6791;SDS011;3433;48.730;9.108;2024-01-30T05:36:15;9.47;;;6.70;;
6791;SDS011;3433;48.730;9.108;2024-01-30T05:39:02;7.67;;;6.67;;
6791;SDS011;3433;48.730;9.108;2024-01-30T05:41:50;11.57;;;6.87;;
6791;SDS011;3433;48.730;9.108;2024-01-30T05:44:38;9.10;;;6.60;;
6791;SDS011;3433;48.730;9.108;2024-01-30T05:47:26;9.30;;;6.30;;
6791;SDS011;3433;48.730;9.108;2024-01-30T05:50:13;10.13;;;6.53;;
6791;SDS011;3433;48.730;9.108;2024-01-30T05:53:00;8.53;;;6.17;;
6791;SDS011;3433;48.730;9.108;2024-01-30T05:55:47;10.53;;;6.17;;
6791;SDS011;3433;48.730;9.108;2024-01-30T05:58:34;11.33;;;7.20;;
6791;SDS011;3433;48.730;9.108;2024-01-30T06:01:24;11.00;;;7.40;;
6791;SDS011;3433;48.730;9.108;2024-01-30T06:04:11;12.00;;;8.50;;
6791;SDS011;3433;48.730;9.108;2024-01-30T06:06:58;10.67;;;6.67;;
6791;SDS011;3433;48.730;9.108;2024-01-30T06:09:47;12.13;;;8.43;;
6791;SDS011;3433;48.730;9.108;2024-01-30T06:12:34;12.57;;;7.87;;
6791;SDS011;3433;48.730;9.108;2024-01-30T06:15:21;11.70;;;7.17;;
6791;SDS011;3433;48.730;9.108;2024-01-30T06:18:10;12.10;;;7.63;;
6791;SDS011;3433;48.730;9.108;2024-01-30T06:20:57;11.33;;;8.90;;
6791;SDS011;3433;48.730;9.108;2024-01-30T06:23:44;12.90;;;7.43;;
6791;SDS011;3433;48.730;9.108;2024-01-30T06:26:31;12.87;;;6.90;;
6791;SDS011;3433;48.730;9.108;2024-01-30T06:29:18;17.00;;;7.47;;
6791;SDS011;3433;48.730;9.108;2024-01-30T06:32:06;12.43;;;7.00;;
6791;SDS011;3433;48.730;9.108;2024-01-30T06:34:54;11.70;;;7.83;;
6791;SDS011;3433;48.730;9.108;2024-01-30T06:37:42;9.43;;;6.30;;
6791;SDS011;3433;48.730;9.108;2024-01-30T06:40:29;13.77;;;6.87;;
6791;SDS011;3433;48.730;9.108;2024-01-30T06:43:16;15.60;;;9.48;;
6791;SDS011;3433;48.730;9.108;2024-01-30T06:46:03;12.03;;;7.60;;
6791;SDS011;3433;48.730;9.108;2024-01-30T06:48:50;11.50;;;7.33;;
6791;SDS011;3433;48.730;9.108;2024-01-30T06:51:39;16.00;;;8.57;;
6791;SDS011;3433;48.730;9.108;2024-01-30T06:54:26;17.00;;;8.83;;
6791;SDS011;3433;48.730;9.108;2024-01-30T06:57:14;15.73;;;8.50;;
6791;SDS011;3433;48.730;9.108;2024-01-30T07:00:01;21.00;;;9.37;;
6791;SDS011;3433;48.730;9.108;2024-01-30T07:02:48;16.90;;;9.40;;
6791;SDS011;3433;48.730;9.108;2024-01-30T07:05:35;20.50;;;10.63;;
6791;SDS011;3433;48.730;9.108;2024-01-30T07:08:24;21.30;;;12.33;;
6791;SDS011;3433;48.730;9.108;2024-01-30T07:11:17;22.10;;;11.03;;
6791;SDS011;3433;48.730;9.108;2024-01-30T07:14:05;21.43;;;10.63;;
6791;SDS011;3433;48.730;9.108;2024-01-30T07:16:52;17.17;;;9.87;;
6791;SDS011;3433;48.730;9.108;2024-01-30T07:19:39;17.33;;;9.63;;
6791;SDS011;3433;48.730;9.108;2024-01-30T07:22:27;18.70;;;10.27;;
6791;SDS011;3433;48.730;9.108;2024-01-30T07:25:15;21.70;;;10.17;;
6791;SDS011;3433;48.730;9.108;2024-01-30T07:28:03;17.47;;;9.77;;
6791;SDS011;3433;48.730;9.108;2024-01-30T07:30:51;14.97;;;9.33;;
6791;SDS011;3433;48.730;9.108;2024-01-30T07:33:38;17.30;;;9.87;;
6791;SDS011;3433;48.730;9.108;2024-01-30T07:36:25;12.53;;;8.97;;
6791;SDS011;3433;48.730;9.108;2024-01-30T07:39:12;15.93;;;9.10;;
6791;SDS011;3433;48.730;9.108;2024-01-30T07:42:01;15.60;;;9.83;;
6791;SDS011;3433;48.730;9.108;2024-01-30T07:44:50;15.83;;;9.07;;
6791;SDS011;3433;48.730;9.108;2024-01-30T07:47:37;16.17;;;10.00;;
6791;SDS011;3433;48.730;9.108;2024-01-30T07:50:24;14.87;;;9.90;;
6791;SDS011;3433;48.730;9.108;2024-01-30T07:53:11;15.57;;;9.93;;
6791;SDS011;3433;48.730;9.108;2024-01-30T07:55:58;18.07;;;9.90;;
6791;SDS011;3433;48.730;9.108;2024-01-30T07:58:47;16.70;;;10.33;;
6791;SDS011;3433;48.730;9.108;2024-01-30T08:01:34;21.20;;;10.67;;
6791;SDS011;3433;48.730;9.108;2024-01-30T08:04:21;15.40;;;9.37;;
6791;SDS011;3433;48.730;9.108;2024-01-30T08:07:08;16.80;;;9.47;;
6791;SDS011;3433;48.730;9.108;2024-01-30T08:09:56;12.33;;;9.17;;
6791;SDS011;3433;48.730;9.108;2024-01-30T08:12:43;14.00;;;9.90;;
6791;SDS011;3433;48.730;9.108;2024-01-30T08:15:31;18.83;;;11.20;;
6791;SDS011;3433;48.730;9.108;2024-01-30T08:18:19;20.57;;;10.30;;
6791;SDS011;3433;48.730;9.108;2024-01-30T08:21:06;24.10;;;10.53;;
6791;SDS011;3433;48.730;9.108;2024-01-30T08:23:53;21.00;;;10.07;;
6791;SDS011;3433;48.730;9.108;2024-01-30T08:26:40;11.10;;;7.10;;
6791;SDS011;3433;48.730;9.108;2024-01-30T08:29:27;19.83;;;9.20;;
6791;SDS011;3433;48.730;9.108;2024-01-30T08:32:16;15.30;;;9.03;;
6791;SDS011;3433;48.730;9.108;2024-01-30T08:35:03;15.70;;;8.00;;
6791;SDS011;3433;48.730;9.108;2024-01-30T08:37:51;12.70;;;8.03;;
6791;SDS011;3433;48.730;9.108;2024-01-30T08:40:39;10.63;;;7.50;;
6791;SDS011;3433;48.730;9.108;2024-01-30T08:43:26;10.20;;;5.63;;
6791;SDS011;3433;48.730;9.108;2024-01-30T08:46:16;10.00;;;6.00;;
6791;SDS011;3433;48.730;9.108;2024-01-30T08:49:05;10.83;;;7.30;;
6791;SDS011;3433;48.730;9.108;2024-01-30T08:51:53;9.70;;;6.93;;
6791;SDS011;3433;48.730;9.108;2024-01-30T08:54:40;12.70;;;6.60;;
6791;SDS011;3433;48.730;9.108;2024-01-30T08:57:27;9.70;;;7.23;;
6791;SDS011;3433;48.730;9.108;2024-01-30T09:00:16;8.03;;;5.60;;
6791;SDS011;3433;48.730;9.108;2024-01-30T09:03:04;11.10;;;6.30;;
6791;SDS011;3433;48.730;9.108;2024-01-30T09:05:52;12.97;;;7.03;;
6791;SDS011;3433;48.730;9.108;2024-01-30T09:08:39;13.60;;;7.80;;
6791;SDS011;3433;48.730;9.108;2024-01-30T09:11:27;12.97;;;7.73;;
6791;SDS011;3433;48.730;9.108;2024-01-30T09:14:14;11.10;;;6.33;;
6791;SDS011;3433;48.730;9.108;2024-01-30T09:17:03;11.70;;;7.30;;
6791;SDS011;3433;48.730;9.108;2024-01-30T09:19:51;9.53;;;6.30;;
6791;SDS011;3433;48.730;9.108;2024-01-30T09:22:39;12.23;;;5.47;;
6791;SDS011;3433;48.730;9.108;2024-01-30T09:25:26;8.10;;;4.80;;
6791;SDS011;3433;48.730;9.108;2024-01-30T09:28:14;6.30;;;4.30;;
6791;SDS011;3433;48.730;9.108;2024-01-30T09:31:01;5.03;;;3.60;;
6791;SDS011;3433;48.730;9.108;2024-01-30T09:33:48;6.90;;;4.33;;
6791;SDS011;3433;48.730;9.108;2024-01-30T09:36:36;4.27;;;3.80;;
6791;SDS011;3433;48.730;9.108;2024-01-30T09:39:25;6.40;;;4.27;;
6791;SDS011;3433;48.730;9.108;2024-01-30T09:42:16;4.93;;;3.03;;
6791;SDS011;3433;48.730;9.108;2024-01-30T09:45:07;3.60;;;3.30;;
6791;SDS011;3433;48.730;9.108;2024-01-30T09:47:59;4.67;;;3.17;;
6791;SDS011;3433;48.730;9.108;2024-01-30T09:50:47;7.10;;;4.23;;
6791;SDS011;3433;48.730;9.108;2024-01-30T09:53:34;4.50;;;3.60;;
6791;SDS011;3433;48.730;9.108;2024-01-30T09:56:23;4.90;;;4.03;;
6791;SDS011;3433;48.730;9.108;2024-01-30T09:59:10;4.93;;;3.03;;
6791;SDS011;3433;48.730;9.108;2024-01-30T10:01:58;5.33;;;2.97;;
6791;SDS011;3433;48.730;9.108;2024-01-30T10:04:46;3.80;;;3.00;;
6791;SDS011;3433;48.730;9.108;2024-01-30T10:07:34;3.03;;;2.67;;
6791;SDS011;3433;48.730;9.108;2024-01-30T10:10:22;3.20;;;2.90;;
6791;SDS011;3433;48.730;9.108;2024-01-30T10:13:11;3.57;;;2.93;;
6791;SDS011;3433;48.730;9.108;2024-01-30T10:15:58;4.97;;;2.70;;
6791;SDS011;3433;48.730;9.108;2024-01-30T10:18:47;4.10;;;3.17;;
6791;SDS011;3433;48.730;9.108;2024-01-30T10:21:34;3.90;;;3.30;;
6791;SDS011;3433;48.730;9.108;2024-01-30T10:24:23;5.20;;;2.90;;
6791;SDS011;3433;48.730;9.108;2024-01-30T10:27:11;6.17;;;3.40;;
6791;SDS011;3433;48.730;9.108;2024-01-30T10:29:59;3.43;;;3.00;;
6791;SDS011;3433;48.730;9.108;2024-01-30T10:32:46;4.50;;;3.00;;
6791;SDS011;3433;48.730;9.108;2024-01-30T10:35:34;3.20;;;2.90;;
6791;SDS011;3433;48.730;9.108;2024-01-30T10:38:21;4.10;;;3.10;;
6791;SDS011;3433;48.730;9.108;2024-01-30T10:41:10;4.10;;;3.00;;
6791;SDS011;3433;48.730;9.108;2024-01-30T10:44:02;3.70;;;2.87;;
6791;SDS011;3433;48.730;9.108;2024-01-30T10:47:00;3.87;;;2.90;;
6791;SDS011;3433;48.730;9.108;2024-01-30T10:49:53;5.43;;;3.03;;
6791;SDS011;3433;48.730;9.108;2024-01-30T10:52:41;2.93;;;2.70;;
6791;SDS011;3433;48.730;9.108;2024-01-30T10:55:29;5.50;;;2.97;;
6791;SDS011;3433;48.730;9.108;2024-01-30T10:58:17;3.60;;;3.30;;
6791;SDS011;3433;48.730;9.108;2024-01-30T11:01:05;4.37;;;3.70;;
6791;SDS011;3433;48.730;9.108;2024-01-30T11:03:55;4.50;;;2.70;;
6791;SDS011;3433;48.730;9.108;2024-01-30T11:06:43;3.77;;;2.90;;
6791;SDS011;3433;48.730;9.108;2024-01-30T11:09:30;4.93;;;3.20;;
6791;SDS011;3433;48.730;9.108;2024-01-30T11:12:23;4.93;;;2.70;;
6791;SDS011;3433;48.730;9.108;2024-01-30T11:15:12;4.60;;;3.43;;
6791;SDS011;3433;48.730;9.108;2024-01-30T11:18:00;4.73;;;2.90;;
6791;SDS011;3433;48.730;9.108;2024-01-30T11:20:49;11.50;;;7.13;;
6791;SDS011;3433;48.730;9.108;2024-01-30T11:23:36;6.10;;;3.93;;
6791;SDS011;3433;48.730;9.108;2024-01-30T11:26:27;7.23;;;3.20;;
6791;SDS011;3433;48.730;9.108;2024-01-30T11:29:15;6.70;;;3.20;;
6791;SDS011;3433;48.730;9.108;2024-01-30T11:32:04;4.10;;;3.20;;
6791;SDS011;3433;48.730;9.108;2024-01-30T11:34:51;2.63;;;2.33;;
6791;SDS011;3433;48.730;9.108;2024-01-30T11:37:41;4.20;;;2.83;;
6791;SDS011;3433;48.730;9.108;2024-01-30T11:40:29;6.30;;;3.43;;
6791;SDS011;3433;48.730;9.108;2024-01-30T11:43:18;5.60;;;3.80;;
6791;SDS011;3433;48.730;9.108;2024-01-30T11:46:05;7.83;;;3.07;;
6791;SDS011;3433;48.730;9.108;2024-01-30T11:48:54;3.13;;;2.77;;
6791;SDS011;3433;48.730;9.108;2024-01-30T11:51:41;4.37;;;2.97;;
6791;SDS011;3433;48.730;9.108;2024-01-30T11:54:30;7.50;;;2.80;;
6791;SDS011;3433;48.730;9.108;2024-01-30T11:57:18;3.17;;;2.70;;
6791;SDS011;3433;48.730;9.108;2024-01-30T12:00:05;3.00;;;2.57;;
6791;SDS011;3433;48.730;9.108;2024-01-30T12:03:00;6.53;;;3.07;;
6791;SDS011;3433;48.730;9.108;2024-01-30T12:05:54;3.23;;;2.67;;
6791;SDS011;3433;48.730;9.108;2024-01-30T12:08:42;11.90;;;3.60;;
6791;SDS011;3433;48.730;9.108;2024-01-30T12:11:31;5.33;;;3.30;;
6791;SDS011;3433;48.730;9.108;2024-01-30T12:14:18;3.47;;;2.57;;
6791;SDS011;3433;48.730;9.108;2024-01-30T12:17:07;6.97;;;3.17;;
6791;SDS011;3433;48.730;9.108;2024-01-30T12:20:02;6.57;;;4.13;;
6791;SDS011;3433;48.730;9.108;2024-01-30T12:22:51;4.33;;;3.27;;
6791;SDS011;3433;48.730;9.108;2024-01-30T12:25:40;6.70;;;4.53;;
6791;SDS011;3433;48.730;9.108;2024-01-30T12:28:29;4.60;;;2.90;;
6791;SDS011;3433;48.730;9.108;2024-01-30T12:31:16;3.87;;;3.30;;
6791;SDS011;3433;48.730;9.108;2024-01-30T12:34:03;3.87;;;2.53;;
6791;SDS011;3433;48.730;9.108;2024-01-30T12:36:50;4.30;;;2.70;;
6791;SDS011;3433;48.730;9.108;2024-01-30T12:39:38;4.70;;;2.70;;
6791;SDS011;3433;48.730;9.108;2024-01-30T12:42:26;4.07;;;3.20;;
6791;SDS011;3433;48.730;9.108;2024-01-30T12:45:15;6.70;;;2.90;;
6791;SDS011;3433;48.730;9.108;2024-01-30T12:48:05;4.73;;;3.10;;
6791;SDS011;3433;48.730;9.108;2024-01-30T12:50:53;2.90;;;2.23;;
6791;SDS011;3433;48.730;9.108;2024-01-30T12:53:40;5.30;;;2.80;;
6791;SDS011;3433;48.730;9.108;2024-01-30T12:56:27;4.03;;;2.90;;
6791;SDS011;3433;48.730;9.108;2024-01-30T12:59:14;5.90;;;2.63;;
6791;SDS011;3433;48.730;9.108;2024-01-30T13:02:03;4.00;;;2.80;;
6791;SDS011;3433;48.730;9.108;2024-01-30T13:04:51;5.40;;;2.50;;
6791;SDS011;3433;48.730;9.108;2024-01-30T13:07:38;3.47;;;2.70;;
6791;SDS011;3433;48.730;9.108;2024-01-30T13:10:25;6.10;;;4.90;;
6791;SDS011;3433;48.730;9.108;2024-01-30T13:13:12;3.70;;;3.40;;
6791;SDS011;3433;48.730;9.108;2024-01-30T13:16:00;5.80;;;3.50;;
6791;SDS011;3433;48.730;9.108;2024-01-30T13:18:48;8.87;;;4.83;;
6791;SDS011;3433;48.730;9.108;2024-01-30T13:21:35;5.50;;;4.20;;
6791;SDS011;3433;48.730;9.108;2024-01-30T13:24:22;6.30;;;4.07;;
6791;SDS011;3433;48.730;9.108;2024-01-30T13:27:10;8.70;;;5.53;;
6791;SDS011;3433;48.730;9.108;2024-01-30T13:29:57;4.20;;;3.37;;
6791;SDS011;3433;48.730;9.108;2024-01-30T13:32:44;4.50;;;3.30;;
6791;SDS011;3433;48.730;9.108;2024-01-30T13:35:33;4.83;;;2.87;;
6791;SDS011;3433;48.730;9.108;2024-01-30T13:38:20;3.93;;;2.90;;
6791;SDS011;3433;48.730;9.108;2024-01-30T13:41:07;4.50;;;3.13;;
6791;SDS011;3433;48.730;9.108;2024-01-30T13:43:54;3.40;;;2.90;;
6791;SDS011;3433;48.730;9.108;2024-01-30T13:46:41;3.57;;;3.27;;
6791;SDS011;3433;48.730;9.108;2024-01-30T13:49:28;4.27;;;3.13;;
6791;SDS011;3433;48.730;9.108;2024-01-30T13:52:17;2.90;;;2.70;;
6791;SDS011;3433;48.730;9.108;2024-01-30T13:55:04;4.03;;;2.87;;
6791;SDS011;3433;48.730;9.108;2024-01-30T13:57:51;3.00;;;2.63;;
6791;SDS011;3433;48.730;9.108;2024-01-30T14:00:38;3.13;;;2.57;;
6791;SDS011;3433;48.730;9.108;2024-01-30T14:03:25;4.10;;;2.80;;
6791;SDS011;3433;48.730;9.108;2024-01-30T14:06:12;3.50;;;2.53;;
6791;SDS011;3433;48.730;9.108;2024-01-30T14:09:02;16.93;;;9.80;;
6791;SDS011;3433;48.730;9.108;2024-01-30T14:11:49;7.57;;;4.90;;
6791;SDS011;3433;48.730;9.108;2024-01-30T14:14:36;4.87;;;3.47;;
6791;SDS011;3433;48.730;9.108;2024-01-30T14:17:23;3.13;;;2.93;;
6791;SDS011;3433;48.730;9.108;2024-01-30T14:20:10;3.10;;;2.77;;
6791;SDS011;3433;48.730;9.108;2024-01-30T14:22:58;3.10;;;2.80;;
6791;SDS011;3433;48.730;9.108;2024-01-30T14:25:46;4.20;;;3.03;;
6791;SDS011;3433;48.730;9.108;2024-01-30T14:28:34;3.93;;;2.60;;
6791;SDS011;3433;48.730;9.108;2024-01-30T14:31:21;3.20;;;2.60;;
6791;SDS011;3433;48.730;9.108;2024-01-30T14:34:09;6.93;;;3.00;;
6791;SDS011;3433;48.730;9.108;2024-01-30T14:36:57;3.40;;;3.00;;
6791;SDS011;3433;48.730;9.108;2024-01-30T14:39:44;5.80;;;3.10;;
6791;SDS011;3433;48.730;9.108;2024-01-30T14:42:32;5.73;;;2.97;;
6791;SDS011;3433;48.730;9.108;2024-01-30T14:45:20;6.67;;;4.53;;
6791;SDS011;3433;48.730;9.108;2024-01-30T14:48:07;4.47;;;3.30;;
6791;SDS011;3433;48.730;9.108;2024-01-30T14:50:55;5.30;;;2.90;;
6791;SDS011;3433;48.730;9.108;2024-01-30T14:53:42;4.67;;;3.20;;
6791;SDS011;3433;48.730;9.108;2024-01-30T14:56:30;5.90;;;3.60;;
6791;SDS011;3433;48.730;9.108;2024-01-30T14:59:19;4.83;;;3.30;;
6791;SDS011;3433;48.730;9.108;2024-01-30T15:02:06;3.77;;;3.37;;
6791;SDS011;3433;48.730;9.108;2024-01-30T15:04:53;8.13;;;3.30;;
6791;SDS011;3433;48.730;9.108;2024-01-30T15:07:41;3.60;;;3.27;;
6791;SDS011;3433;48.730;9.108;2024-01-30T15:10:28;6.40;;;3.57;;
6791;SDS011;3433;48.730;9.108;2024-01-30T15:13:15;5.67;;;3.10;;
6791;SDS011;3433;48.730;9.108;2024-01-30T15:16:04;4.50;;;3.00;;
6791;SDS011;3433;48.730;9.108;2024-01-30T15:18:52;3.87;;;3.07;;
6791;SDS011;3433;48.730;9.108;2024-01-30T15:21:39;3.23;;;2.77;;
6791;SDS011;3433;48.730;9.108;2024-01-30T15:24:26;10.50;;;7.50;;
6791;SDS011;3433;48.730;9.108;2024-01-30T15:27:13;14.77;;;8.67;;
6791;SDS011;3433;48.730;9.108;2024-01-30T15:30:00;17.80;;;9.33;;
6791;SDS011;3433;48.730;9.108;2024-01-30T15:32:49;18.37;;;9.93;;
6791;SDS011;3433;48.730;9.108;2024-01-30T15:35:36;21.37;;;11.00;;
6791;SDS011;3433;48.730;9.108;2024-01-30T15:38:24;19.43;;;10.80;;
6791;SDS011;3433;48.730;9.108;2024-01-30T15:41:11;17.00;;;10.43;;
6791;SDS011;3433;48.730;9.108;2024-01-30T15:43:58;20.47;;;11.20;;
6791;SDS011;3433;48.730;9.108;2024-01-30T15:46:47;20.70;;;12.60;;
6791;SDS011;3433;48.730;9.108;2024-01-30T15:49:36;14.93;;;11.80;;
6791;SDS011;3433;48.730;9.108;2024-01-30T15:52:23;18.07;;;12.30;;
6791;SDS011;3433;48.730;9.108;2024-01-30T15:55:10;18.90;;;12.13;;
6791;SDS011;3433;48.730;9.108;2024-01-30T15:57:59;23.47;;;13.13;;
6791;SDS011;3433;48.730;9.108;2024-01-30T16:00:46;23.53;;;13.20;;
6791;SDS011;3433;48.730;9.108;2024-01-30T16:07:01;18.90;;;12.70;;
6791;SDS011;3433;48.730;9.108;2024-01-30T16:09:48;28.37;;;13.40;;
6791;SDS011;3433;48.730;9.108;2024-01-30T16:12:36;26.37;;;13.17;;
6791;SDS011;3433;48.730;9.108;2024-01-30T16:15:27;21.77;;;13.20;;
6791;SDS011;3433;48.730;9.108;2024-01-30T16:18:14;25.57;;;14.20;;
6791;SDS011;3433;48.730;9.108;2024-01-30T16:21:01;29.47;;;13.43;;
6791;SDS011;3433;48.730;9.108;2024-01-30T16:23:50;21.30;;;13.20;;
6791;SDS011;3433;48.730;9.108;2024-01-30T16:26:39;25.67;;;15.00;;
6791;SDS011;3433;48.730;9.108;2024-01-30T16:29:26;33.40;;;15.30;;
6791;SDS011;3433;48.730;9.108;2024-01-30T16:32:13;27.80;;;14.77;;
6791;SDS011;3433;48.730;9.108;2024-01-30T16:35:00;29.07;;;15.10;;
6791;SDS011;3433;48.730;9.108;2024-01-30T16:37:47;21.40;;;14.60;;
6791;SDS011;3433;48.730;9.108;2024-01-30T16:40:36;21.47;;;13.40;;
6791;SDS011;3433;48.730;9.108;2024-01-30T16:43:23;27.10;;;14.30;;
6791;SDS011;3433;48.730;9.108;2024-01-30T16:46:10;18.93;;;14.10;;
6791;SDS011;3433;48.730;9.108;2024-01-30T16:48:57;28.03;;;15.03;;
6791;SDS011;3433;48.730;9.108;2024-01-30T16:51:44;20.70;;;13.73;;
6791;SDS011;3433;48.730;9.108;2024-01-30T16:54:31;29.20;;;15.40;;
6791;SDS011;3433;48.730;9.108;2024-01-30T16:57:20;26.60;;;13.90;;
6791;SDS011;3433;48.730;9.108;2024-01-30T17:00:07;30.23;;;12.50;;
6791;SDS011;3433;48.730;9.108;2024-01-30T17:02:54;19.53;;;11.97;;
6791;SDS011;3433;48.730;9.108;2024-01-30T17:05:41;17.93;;;12.27;;
6791;SDS011;3433;48.730;9.108;2024-01-30T17:08:28;24.33;;;12.40;;
6791;SDS011;3433;48.730;9.108;2024-01-30T17:11:15;20.70;;;12.40;;
6791;SDS011;3433;48.730;9.108;2024-01-30T17:14:04;16.73;;;10.87;;
6791;SDS011;3433;48.730;9.108;2024-01-30T17:16:52;22.27;;;14.50;;